createdAt,value
2023-03-19T00:04:41.443Z,27.50
2023-03-19T00:07:12.490Z,27.50
2023-03-19T00:09:43.632Z,27.50
2023-03-19T00:12:14.824Z,27.50
2023-03-19T00:17:53.295Z,27.50
2023-03-19T00:28:52.869Z,27.70
2023-03-19T00:31:24.008Z,27.70
2023-03-19T00:33:55.022Z,27.70
2023-03-19T00:36:27.008Z,27.70
2023-03-19T00:38:58.735Z,27.80
2023-03-19T00:41:30.128Z,27.80
2023-03-19T00:44:01.440Z,27.80
2023-03-19T00:52:17.949Z,27.90
2023-03-19T00:54:48.931Z,28.00
2023-03-19T00:57:19.927Z,28.00
2023-03-19T00:59:50.821Z,28.00
2023-03-19T01:02:21.722Z,28.10
2023-03-19T01:04:52.893Z,28.10
2023-03-19T01:07:27.782Z,28.10
2023-03-19T01:09:58.706Z,28.10
2023-03-19T01:12:29.721Z,28.10
2023-03-19T01:26:52.837Z,28.20
2023-03-19T01:49:42.230Z,28.60
2023-03-19T02:04:04.436Z,28.70
2023-03-19T02:15:21.513Z,29.10
2023-03-19T02:24:08.399Z,29.30
2023-03-19T02:26:48.169Z,29.40
2023-03-19T02:29:21.846Z,29.50
2023-03-19T02:31:59.713Z,29.60
2023-03-19T02:37:42.712Z,29.80
2023-03-19T02:40:36.762Z,29.90
2023-03-19T02:55:01.458Z,30.30
2023-03-19T03:22:49.370Z,31.40
2023-03-19T03:25:30.393Z,31.60
2023-03-19T03:34:01.550Z,31.90
2023-03-19T03:36:32.110Z,32.00
2023-03-19T03:39:03.055Z,32.10
2023-03-19T03:41:34.246Z,32.10
2023-03-19T03:44:05.197Z,32.20
2023-03-19T03:46:36.778Z,32.30
2023-03-19T03:49:17.257Z,32.40
2023-03-19T03:51:48.170Z,32.50
2023-03-19T03:54:19.097Z,32.70
2023-03-19T03:56:51.760Z,32.70
2023-03-19T03:59:23.041Z,32.80
2023-03-19T04:01:54.053Z,32.90
2023-03-19T04:04:25.078Z,33.00
2023-03-19T04:06:55.973Z,33.00
2023-03-19T04:09:27.587Z,33.10
2023-03-19T04:11:58.470Z,33.20
2023-03-19T04:14:29.575Z,33.20
2023-03-19T04:17:00.497Z,33.30
2023-03-19T04:19:31.389Z,33.30
2023-03-19T04:22:03.907Z,33.40
2023-03-19T04:24:34.838Z,33.40
2023-03-19T04:27:05.784Z,33.50
2023-03-19T04:29:36.922Z,33.50
2023-03-19T04:32:08.296Z,33.60
2023-03-19T04:34:39.219Z,33.70
2023-03-19T04:37:11.557Z,33.70
2023-03-19T04:39:42.534Z,33.90
2023-03-19T04:42:13.621Z,34.00
2023-03-19T04:44:44.555Z,34.00
2023-03-19T04:47:16.057Z,34.10
2023-03-19T04:49:46.997Z,34.10
2023-03-19T04:52:17.930Z,34.20
2023-03-19T04:54:49.110Z,34.30
2023-03-19T04:57:20.018Z,34.40
2023-03-19T04:59:50.956Z,34.40
2023-03-19T05:02:22.032Z,34.50
2023-03-19T05:04:54.678Z,34.60
2023-03-19T05:07:25.381Z,34.60
2023-03-19T05:10:01.774Z,34.60
2023-03-19T05:12:31.663Z,34.60
2023-03-19T05:15:02.791Z,34.60
2023-03-19T05:17:36.573Z,34.60
2023-03-19T05:20:09.799Z,34.50
2023-03-19T05:22:40.872Z,34.60
2023-03-19T05:25:12.162Z,34.60
2023-03-19T05:27:43.270Z,34.70
2023-03-19T05:30:23.709Z,34.80
2023-03-19T05:32:54.889Z,34.80
2023-03-19T05:35:25.846Z,35.00
2023-03-19T05:37:57.259Z,35.00
2023-03-19T05:40:32.589Z,35.00
2023-03-19T05:43:03.753Z,35.00
2023-03-19T05:45:34.707Z,35.00
2023-03-19T05:48:09.176Z,35.00
2023-03-19T05:50:39.698Z,34.80
2023-03-19T05:53:10.639Z,34.70
2023-03-19T05:55:41.855Z,34.60
2023-03-19T05:58:12.809Z,34.50
2023-03-19T06:00:43.903Z,34.50
2023-03-19T06:03:14.867Z,34.60
2023-03-19T06:05:46.442Z,34.80
2023-03-19T06:08:20.766Z,34.90
2023-03-19T06:10:51.889Z,35.10
2023-03-19T06:13:22.842Z,35.20
2023-03-19T06:15:53.781Z,35.30
2023-03-19T06:18:24.801Z,35.30
2023-03-19T06:20:55.890Z,35.40
2023-03-19T06:23:28.174Z,35.50
2023-03-19T06:25:59.094Z,35.50
2023-03-19T06:28:30.016Z,35.50
2023-03-19T06:31:01.700Z,35.50
2023-03-19T06:33:36.497Z,35.60
2023-03-19T06:36:09.598Z,35.60
2023-03-19T06:38:40.881Z,35.60
2023-03-19T06:41:12.093Z,35.60
2023-03-19T06:43:44.109Z,35.70
2023-03-19T06:46:15.151Z,35.70
2023-03-19T06:48:46.095Z,35.80
2023-03-19T06:51:17.031Z,35.80
2023-03-19T06:53:48.678Z,35.80
2023-03-19T06:56:19.661Z,35.80
2023-03-19T06:58:52.508Z,35.80
2023-03-19T07:01:24.235Z,35.70
2023-03-19T07:03:56.230Z,35.60
2023-03-19T07:06:28.456Z,35.60
2023-03-19T07:08:59.479Z,35.50
2023-03-19T07:11:36.562Z,35.60
2023-03-19T07:14:09.539Z,35.60
2023-03-19T07:16:40.471Z,35.60
2023-03-19T07:19:11.397Z,35.50
2023-03-19T07:21:42.794Z,35.30
2023-03-19T07:24:13.697Z,35.20
2023-03-19T07:26:45.101Z,35.00
2023-03-19T07:29:16.131Z,34.90
2023-03-19T07:31:47.162Z,34.90
2023-03-19T07:34:19.290Z,34.90
2023-03-19T07:36:50.412Z,34.90
2023-03-19T07:39:21.716Z,34.80
2023-03-19T07:41:53.234Z,34.70
2023-03-19T07:44:24.590Z,34.70
2023-03-19T07:46:55.828Z,34.60
2023-03-19T07:49:26.778Z,34.50
2023-03-19T07:51:57.805Z,34.40
2023-03-19T07:54:28.839Z,34.40
2023-03-19T07:56:59.739Z,34.30
2023-03-19T07:59:30.733Z,34.30
2023-03-19T08:02:01.676Z,34.20
2023-03-19T08:04:32.864Z,34.20
2023-03-19T08:07:06.362Z,34.20
2023-03-19T08:09:38.492Z,34.20
2023-03-19T08:12:10.560Z,34.20
2023-03-19T08:14:41.565Z,34.10
2023-03-19T08:17:12.627Z,34.00
2023-03-19T08:19:43.675Z,34.00
2023-03-19T08:22:14.658Z,34.00
2023-03-19T08:24:45.569Z,34.00
2023-03-19T08:27:16.468Z,34.10
2023-03-19T08:29:47.417Z,34.10
2023-03-19T08:32:22.141Z,34.10
2023-03-19T08:34:55.855Z,34.20
2023-03-19T08:37:28.237Z,34.20
2023-03-19T08:39:59.217Z,34.30
2023-03-19T08:42:30.267Z,34.30
2023-03-19T08:45:01.166Z,34.40
2023-03-19T08:47:32.285Z,34.40
2023-03-19T08:50:03.195Z,34.50
2023-03-19T08:52:34.404Z,34.50
2023-03-19T08:55:05.321Z,34.50
2023-03-19T08:57:36.599Z,34.50
2023-03-19T09:00:08.981Z,34.50
2023-03-19T09:02:39.920Z,34.50
2023-03-19T09:05:12.430Z,34.50
2023-03-19T09:07:45.726Z,34.50
2023-03-19T09:10:22.453Z,34.40
2023-03-19T09:12:51.947Z,34.40
2023-03-19T09:15:23.273Z,34.40
2023-03-19T09:17:54.418Z,34.40
2023-03-19T09:20:25.513Z,34.40
2023-03-19T09:22:56.539Z,34.40
2023-03-19T09:25:27.428Z,34.30
2023-03-19T09:27:58.329Z,34.30
2023-03-19T09:30:30.450Z,34.30
2023-03-19T09:33:01.660Z,34.20
2023-03-19T09:35:34.612Z,34.20
2023-03-19T09:38:06.210Z,34.10
2023-03-19T09:40:48.914Z,34.10
2023-03-19T09:43:32.107Z,34.10
2023-03-19T09:46:04.789Z,34.00
2023-03-19T09:48:42.170Z,34.00
2023-03-19T09:51:15.449Z,33.90
2023-03-19T09:54:01.450Z,33.90
2023-03-19T09:56:32.161Z,33.80
2023-03-19T09:59:04.319Z,33.80
2023-03-19T10:01:38.308Z,33.80
2023-03-19T10:04:38.957Z,33.70
2023-03-19T10:07:44.209Z,33.70
2023-03-19T10:10:24.269Z,33.70
2023-03-19T10:13:17.736Z,33.60
2023-03-19T10:15:50.194Z,33.60
2023-03-19T10:18:26.868Z,33.60
2023-03-19T10:21:03.717Z,33.60
2023-03-19T10:23:36.986Z,33.50
2023-03-19T10:26:10.241Z,33.50
2023-03-19T10:28:43.327Z,33.50
2023-03-19T10:31:28.832Z,33.50
2023-03-19T10:34:33.643Z,33.50
2023-03-19T10:37:06.878Z,33.40
2023-03-19T10:39:39.925Z,33.40
2023-03-19T10:42:29.334Z,33.40
2023-03-19T10:45:06.756Z,33.30
2023-03-19T10:47:42.351Z,33.30
2023-03-19T10:50:21.534Z,33.30
2023-03-19T10:52:57.441Z,33.30
2023-03-19T10:55:30.460Z,33.30
2023-03-19T10:58:06.265Z,33.20
2023-03-19T11:00:37.929Z,33.20
2023-03-19T11:03:11.141Z,33.20
2023-03-19T11:05:42.054Z,33.20
2023-03-19T11:08:32.852Z,33.20
2023-03-19T11:10:51.914Z,33.10
2023-03-19T11:13:28.184Z,33.10
2023-03-19T11:16:01.378Z,33.10
2023-03-19T11:18:35.140Z,33.10
2023-03-19T11:21:11.391Z,33.00
2023-03-19T11:23:45.691Z,33.00
2023-03-19T11:26:19.162Z,33.00
2023-03-19T11:28:57.330Z,33.00
2023-03-19T11:31:47.951Z,33.00
2023-03-19T11:34:46.464Z,33.00
2023-03-19T11:37:35.209Z,32.90
2023-03-19T11:40:40.665Z,33.00
2023-03-19T11:43:29.824Z,32.90
2023-03-19T11:46:09.407Z,32.80
2023-03-19T11:49:08.075Z,32.80
2023-03-19T11:51:58.700Z,32.80
2023-03-19T11:55:05.580Z,32.80
2023-03-19T11:57:51.536Z,32.80
2023-03-19T12:00:46.507Z,32.70
2023-03-19T12:03:27.130Z,32.70
2023-03-19T12:06:00.402Z,32.70
2023-03-19T12:08:56.172Z,32.70
2023-03-19T12:11:32.193Z,32.60
2023-03-19T12:14:17.298Z,32.60
2023-03-19T12:17:25.773Z,32.60
2023-03-19T12:20:05.213Z,32.50
2023-03-19T12:23:06.094Z,32.50
2023-03-19T12:25:48.028Z,32.50
2023-03-19T12:28:32.478Z,32.50
2023-03-19T12:31:09.699Z,32.40
2023-03-19T12:33:52.800Z,32.40
2023-03-19T12:36:20.084Z,32.30
2023-03-19T12:38:53.782Z,32.30
2023-03-19T12:41:32.201Z,32.30
2023-03-19T12:44:07.063Z,32.30
2023-03-19T12:46:40.746Z,32.30
2023-03-19T12:49:34.621Z,32.20
2023-03-19T12:55:55.167Z,32.20
2023-03-19T12:57:53.963Z,32.00
2023-03-19T13:00:41.458Z,32.00
2023-03-19T13:03:43.344Z,31.90
2023-03-19T13:06:16.587Z,31.90
2023-03-19T13:08:59.413Z,31.80
2023-03-19T13:11:55.809Z,31.80
2023-03-19T13:14:56.485Z,31.70
2023-03-19T13:20:55.825Z,31.50
2023-03-19T13:23:31.667Z,31.40
2023-03-19T13:26:05.627Z,31.40
2023-03-19T13:28:39.305Z,31.30
2023-03-19T13:31:17.012Z,31.30
2023-03-19T13:34:08.114Z,31.20
2023-03-19T13:36:43.245Z,31.20
2023-03-19T13:39:19.846Z,31.20
2023-03-19T13:42:01.882Z,31.10
2023-03-19T13:44:35.385Z,31.10
2023-03-19T13:47:14.649Z,31.00
2023-03-19T13:49:50.022Z,30.90
2023-03-19T13:52:24.394Z,30.90
2023-03-19T13:55:00.145Z,30.90
2023-03-19T13:57:44.640Z,30.80
2023-03-19T14:00:46.060Z,30.80
2023-03-19T14:03:25.735Z,30.70
2023-03-19T14:06:00.105Z,30.70
2023-03-19T14:08:33.776Z,30.70
2023-03-19T14:11:06.806Z,30.60
2023-03-19T14:13:45.855Z,30.60
2023-03-19T14:16:28.301Z,30.60
2023-03-19T14:19:05.983Z,30.60
2023-03-19T14:21:47.089Z,30.60
2023-03-19T14:24:56.813Z,30.60
2023-03-19T14:27:25.461Z,30.60
2023-03-19T14:30:00.173Z,30.70
2023-03-19T14:32:32.843Z,30.70
2023-03-19T14:35:06.264Z,30.70
2023-03-19T14:37:56.350Z,30.70
2023-03-19T14:40:54.498Z,30.70
2023-03-19T14:43:58.962Z,30.80
2023-03-19T14:46:35.293Z,30.70
2023-03-19T14:49:39.478Z,30.70
2023-03-19T14:52:28.718Z,30.60
2023-03-19T14:55:12.703Z,30.60
2023-03-19T14:57:44.877Z,30.60
2023-03-19T15:00:21.180Z,30.60
2023-03-19T15:03:01.780Z,30.60
2023-03-19T15:05:35.922Z,30.50
2023-03-19T15:08:09.634Z,30.50
2023-03-19T15:11:12.392Z,30.50
2023-03-19T15:14:02.028Z,30.40
2023-03-19T15:17:02.880Z,30.50
2023-03-19T15:19:34.923Z,30.40
2023-03-19T15:22:14.465Z,30.50
2023-03-19T15:24:45.908Z,30.40
2023-03-19T15:27:40.446Z,30.50
2023-03-19T15:30:27.414Z,30.50
2023-03-19T15:33:11.958Z,30.40
2023-03-19T15:35:37.517Z,30.50
2023-03-19T15:38:14.353Z,30.50
2023-03-19T15:40:45.667Z,30.50
2023-03-19T15:43:17.301Z,30.60
2023-03-19T15:45:54.254Z,30.50
2023-03-19T15:48:30.658Z,30.50
2023-03-19T15:51:04.228Z,30.40
2023-03-19T15:53:37.545Z,30.40
2023-03-19T15:56:09.767Z,30.30
2023-03-19T15:58:43.285Z,30.40
2023-03-19T16:01:16.199Z,30.30
2023-03-19T16:03:55.411Z,30.30
2023-03-19T16:06:36.053Z,30.20
2023-03-19T16:09:18.598Z,30.20
2023-03-19T16:11:49.903Z,30.20
2023-03-19T16:14:41.775Z,30.10
2023-03-19T16:17:18.372Z,30.10
2023-03-19T16:19:58.239Z,30.10
2023-03-19T16:22:34.033Z,30.00
2023-03-19T16:25:06.287Z,30.00
2023-03-19T16:27:39.655Z,29.90
2023-03-19T16:30:34.366Z,29.90
2023-03-19T16:33:06.757Z,29.90
2023-03-19T16:35:38.794Z,29.80
2023-03-19T16:38:26.785Z,29.80
2023-03-19T16:41:21.413Z,29.80
2023-03-19T16:43:55.182Z,29.90
2023-03-19T16:46:27.855Z,29.90
2023-03-19T16:48:59.714Z,29.90
2023-03-19T16:51:30.911Z,29.90
2023-03-19T16:54:04.610Z,29.90
2023-03-19T16:56:38.474Z,29.90
2023-03-19T16:59:08.903Z,29.90
2023-03-19T17:01:40.299Z,30.00
2023-03-19T17:04:13.884Z,29.90
2023-03-19T17:06:44.898Z,29.90
2023-03-19T17:09:26.062Z,29.90
2023-03-19T17:11:58.037Z,29.90
2023-03-19T17:14:29.318Z,29.90
2023-03-19T17:17:02.615Z,29.90
2023-03-19T17:19:39.751Z,29.90
2023-03-19T17:22:14.642Z,29.80
2023-03-19T17:24:46.018Z,29.80
2023-03-19T17:27:17.850Z,29.80
2023-03-19T17:29:49.116Z,29.70
2023-03-19T17:32:22.468Z,29.60
2023-03-19T17:34:53.514Z,29.50
2023-03-19T17:37:24.531Z,29.50
2023-03-19T17:39:55.949Z,29.30
2023-03-19T17:42:28.005Z,29.20
2023-03-19T17:45:01.791Z,29.10
2023-03-19T17:47:32.925Z,29.10
2023-03-19T17:50:04.288Z,29.00
2023-03-19T17:52:39.784Z,29.00
2023-03-19T17:55:27.822Z,29.00
2023-03-19T17:57:59.347Z,29.00
2023-03-19T18:00:30.482Z,29.00
2023-03-19T18:03:01.871Z,29.00
2023-03-19T18:05:32.966Z,29.00
2023-03-19T18:08:03.906Z,29.00
2023-03-19T18:10:36.470Z,29.00
2023-03-19T18:13:08.039Z,29.00
2023-03-19T18:15:40.417Z,29.00
2023-03-19T18:18:13.990Z,29.00
2023-03-19T18:20:46.543Z,29.00
2023-03-19T18:23:18.511Z,29.00
2023-03-19T18:25:49.453Z,29.00
2023-03-19T18:28:20.592Z,29.00
2023-03-19T18:30:51.630Z,29.00
2023-03-19T18:33:24.982Z,29.10
2023-03-19T18:35:56.519Z,29.10
2023-03-19T18:38:30.924Z,29.10
2023-03-19T18:41:02.365Z,29.10
2023-03-19T18:43:33.593Z,29.10
2023-03-19T18:46:04.539Z,29.00
2023-03-19T18:48:35.769Z,29.00
2023-03-19T18:51:07.852Z,29.00
2023-03-19T18:53:38.748Z,29.00
2023-03-19T18:56:24.482Z,28.90
2023-03-19T18:58:56.428Z,28.90
2023-03-19T19:01:28.386Z,28.80
2023-03-19T19:03:59.341Z,28.80
2023-03-19T19:06:46.367Z,28.80
2023-03-19T19:09:05.934Z,28.80
2023-03-19T19:11:37.808Z,28.80
2023-03-19T19:14:11.159Z,28.80
2023-03-19T19:16:42.746Z,28.70
2023-03-19T19:19:25.572Z,28.70
2023-03-19T19:21:57.196Z,28.60
2023-03-19T19:24:28.554Z,28.60
2023-03-19T19:27:01.684Z,28.60
2023-03-19T19:29:33.518Z,28.50
2023-03-19T19:32:05.632Z,28.50
2023-03-19T19:34:39.730Z,28.40
2023-03-19T19:37:13.502Z,28.30
2023-03-19T19:39:44.684Z,28.30
2023-03-19T19:42:18.184Z,28.20
2023-03-19T19:44:51.746Z,28.20
2023-03-19T19:47:22.757Z,28.20
2023-03-19T19:49:54.123Z,28.10
2023-03-19T19:52:29.334Z,28.10
2023-03-19T19:55:00.877Z,28.10
2023-03-19T19:57:32.478Z,28.10
2023-03-19T20:00:06.079Z,28.10
2023-03-19T20:02:37.042Z,28.00
2023-03-19T20:05:08.402Z,28.00
2023-03-19T20:07:39.560Z,27.90
2023-03-19T20:10:11.325Z,27.90
2023-03-19T20:12:44.771Z,27.90
2023-03-19T20:15:21.160Z,27.90
2023-03-19T20:22:57.362Z,27.70
2023-03-19T20:25:31.124Z,27.70
2023-03-19T20:28:03.874Z,27.70
2023-03-19T20:30:38.252Z,27.70
2023-03-19T20:33:10.574Z,27.60
2023-03-19T20:35:41.977Z,27.60
2023-03-19T20:38:15.359Z,27.60
2023-03-19T20:40:51.698Z,27.60
2023-03-19T20:43:34.064Z,27.60
2023-03-19T20:46:07.958Z,27.50
2023-03-19T20:48:39.521Z,27.40
2023-03-19T20:51:11.935Z,27.40
2023-03-19T20:53:43.520Z,27.40
2023-03-19T20:56:17.319Z,27.40
2023-03-19T20:58:48.976Z,27.40
2023-03-19T21:01:20.971Z,27.40
2023-03-19T21:03:51.913Z,27.40
2023-03-19T21:06:28.424Z,27.50
2023-03-19T21:09:01.526Z,27.40
2023-03-19T21:11:43.356Z,27.40
2023-03-19T21:14:18.071Z,27.40
2023-03-19T21:16:49.034Z,27.40
2023-03-19T21:19:20.544Z,27.50
2023-03-19T21:21:51.774Z,27.50
2023-03-19T21:24:24.284Z,27.50
2023-03-19T21:26:56.870Z,27.50
2023-03-19T21:29:30.192Z,27.50
2023-03-19T21:32:01.809Z,27.50
2023-03-19T21:34:33.090Z,27.50
2023-03-19T21:37:03.981Z,27.50
2023-03-19T21:39:34.898Z,27.50
2023-03-19T21:42:09.626Z,27.50
2023-03-19T21:44:41.981Z,27.50
2023-03-19T21:47:24.141Z,27.50
2023-03-19T21:49:55.998Z,27.50
2023-03-19T21:52:26.942Z,27.50
2023-03-19T21:54:58.522Z,27.50
2023-03-19T21:57:30.157Z,27.60
2023-03-19T22:00:01.136Z,27.60
2023-03-19T22:02:34.713Z,27.60
2023-03-19T22:05:07.348Z,27.70
2023-03-19T22:07:39.166Z,27.70
2023-03-19T22:10:10.678Z,27.70
2023-03-19T22:12:42.636Z,27.70
2023-03-19T22:15:22.974Z,27.70
2023-03-19T22:17:53.889Z,27.70
2023-03-19T22:20:27.479Z,27.60
2023-03-19T22:22:59.573Z,27.50
2023-03-19T22:25:33.330Z,27.50
2023-03-19T22:28:06.848Z,27.40
2023-03-19T22:30:40.452Z,27.40
2023-03-19T22:33:25.057Z,27.40
2023-03-19T22:35:56.381Z,27.40
2023-03-19T22:38:27.584Z,27.40
2023-03-19T22:40:59.298Z,27.30
2023-03-19T22:43:36.213Z,27.30
2023-03-19T22:46:15.428Z,27.30
2023-03-19T22:48:50.162Z,27.20
2023-03-19T22:51:24.871Z,27.20
2023-03-19T22:53:56.742Z,27.20
2023-03-19T22:56:28.200Z,27.20
2023-03-19T22:58:59.349Z,27.10
2023-03-19T23:01:32.901Z,27.10
2023-03-19T23:04:06.495Z,27.10
2023-03-19T23:06:37.728Z,27.10
2023-03-19T23:09:09.298Z,27.20
2023-03-19T23:11:40.655Z,27.20
2023-03-19T23:14:26.100Z,27.20
2023-03-19T23:16:47.013Z,27.20
2023-03-19T23:19:20.705Z,27.20
2023-03-19T23:21:52.164Z,27.20
2023-03-19T23:24:23.622Z,27.30
2023-03-19T23:26:57.615Z,27.30
2023-03-19T23:29:31.453Z,27.20
2023-03-19T23:32:02.914Z,27.20
2023-03-19T23:34:42.335Z,27.20
2023-03-19T23:37:07.119Z,27.20
2023-03-19T23:39:39.749Z,27.20
2023-03-19T23:42:11.975Z,27.20
2023-03-19T23:44:44.820Z,27.20
2023-03-19T23:47:16.650Z,27.20
2023-03-19T23:49:47.616Z,27.20
2023-03-19T23:52:18.647Z,27.20
2023-03-19T23:54:49.870Z,27.20
2023-03-19T23:57:22.297Z,27.20
2023-03-19T23:59:54.518Z,27.20
